sensor_id;sensor_type;location;lat;lon;timestamp;P1;durP1;ratioP1;P2;durP2;ratioP2
71003;SDS011;59025;42.050;-8.660;2022-09-09T00:00:23;6.07;;;3.30;;
71003;SDS011;59025;42.050;-8.660;2022-09-09T00:02:54;7.70;;;3.28;;
71003;SDS011;59025;42.050;-8.660;2022-09-09T00:05:30;10.23;;;4.00;;
71003;SDS011;59025;42.050;-8.660;2022-09-09T00:08:06;6.07;;;3.08;;
71003;SDS011;59025;42.050;-8.660;2022-09-09T00:10:40;6.90;;;3.05;;
71003;SDS011;59025;42.050;-8.660;2022-09-09T00:13:12;6.50;;;3.07;;
71003;SDS011;59025;42.050;-8.660;2022-09-09T00:15:48;8.00;;;3.45;;
71003;SDS011;59025;42.050;-8.660;2022-09-09T00:18:25;10.75;;;4.35;;
71003;SDS011;59025;42.050;-8.660;2022-09-09T00:21:01;8.13;;;3.80;;
71003;SDS011;59025;42.050;-8.660;2022-09-09T00:23:34;8.98;;;3.50;;
71003;SDS011;59025;42.050;-8.660;2022-09-09T00:26:05;7.63;;;3.53;;
71003;SDS011;59025;42.050;-8.660;2022-09-09T00:28:39;9.10;;;3.30;;
71003;SDS011;59025;42.050;-8.660;2022-09-09T00:31:13;7.90;;;3.47;;
71003;SDS011;59025;42.050;-8.660;2022-09-09T00:33:47;7.35;;;3.53;;
71003;SDS011;59025;42.050;-8.660;2022-09-09T00:36:18;8.98;;;3.47;;
71003;SDS011;59025;42.050;-8.660;2022-09-09T00:38:51;6.03;;;3.20;;
71003;SDS011;59025;42.050;-8.660;2022-09-09T00:41:26;6.63;;;3.00;;
71003;SDS011;59025;42.050;-8.660;2022-09-09T00:44:08;6.20;;;2.80;;
71003;SDS011;59025;42.050;-8.660;2022-09-09T00:46:55;5.80;;;2.60;;
71003;SDS011;59025;42.050;-8.660;2022-09-09T00:49:35;4.97;;;2.50;;
71003;SDS011;59025;42.050;-8.660;2022-09-09T00:52:14;4.87;;;2.40;;
71003;SDS011;59025;42.050;-8.660;2022-09-09T00:54:51;7.30;;;2.47;;
71003;SDS011;59025;42.050;-8.660;2022-09-09T00:57:29;4.97;;;2.33;;
71003;SDS011;59025;42.050;-8.660;2022-09-09T01:00:15;4.82;;;2.20;;
71003;SDS011;59025;42.050;-8.660;2022-09-09T01:02:48;6.88;;;2.47;;
71003;SDS011;59025;42.050;-8.660;2022-09-09T01:05:25;6.07;;;2.07;;
71003;SDS011;59025;42.050;-8.660;2022-09-09T01:07:58;4.63;;;2.70;;
71003;SDS011;59025;42.050;-8.660;2022-09-09T01:10:29;5.88;;;2.25;;
71003;SDS011;59025;42.050;-8.660;2022-09-09T01:13:04;3.53;;;2.15;;
71003;SDS011;59025;42.050;-8.660;2022-09-09T01:15:39;4.35;;;1.98;;
71003;SDS011;59025;42.050;-8.660;2022-09-09T01:18:10;5.60;;;2.40;;
71003;SDS011;59025;42.050;-8.660;2022-09-09T01:20:44;5.55;;;2.22;;
71003;SDS011;59025;42.050;-8.660;2022-09-09T01:26:22;4.82;;;2.28;;
71003;SDS011;59025;42.050;-8.660;2022-09-09T01:28:54;5.07;;;2.20;;
71003;SDS011;59025;42.050;-8.660;2022-09-09T01:31:26;3.90;;;2.17;;
71003;SDS011;59025;42.050;-8.660;2022-09-09T01:33:58;4.13;;;2.33;;
71003;SDS011;59025;42.050;-8.660;2022-09-09T01:36:28;4.05;;;1.92;;
71003;SDS011;59025;42.050;-8.660;2022-09-09T01:39:03;5.25;;;2.08;;
71003;SDS011;59025;42.050;-8.660;2022-09-09T01:41:32;3.67;;;2.15;;
71003;SDS011;59025;42.050;-8.660;2022-09-09T01:43:59;2.77;;;1.60;;
71003;SDS011;59025;42.050;-8.660;2022-09-09T01:46:27;5.28;;;1.92;;
71003;SDS011;59025;42.050;-8.660;2022-09-09T01:48:55;4.13;;;2.10;;
71003;SDS011;59025;42.050;-8.660;2022-09-09T01:51:25;3.60;;;1.88;;
71003;SDS011;59025;42.050;-8.660;2022-09-09T01:53:53;2.80;;;1.58;;
71003;SDS011;59025;42.050;-8.660;2022-09-09T01:56:27;4.20;;;1.90;;
71003;SDS011;59025;42.050;-8.660;2022-09-09T01:59:09;4.28;;;1.77;;
71003;SDS011;59025;42.050;-8.660;2022-09-09T02:01:57;2.85;;;1.70;;
71003;SDS011;59025;42.050;-8.660;2022-09-09T02:04:39;4.47;;;1.88;;
71003;SDS011;59025;42.050;-8.660;2022-09-09T02:07:12;4.35;;;2.17;;
71003;SDS011;59025;42.050;-8.660;2022-09-09T02:09:49;4.13;;;1.80;;
71003;SDS011;59025;42.050;-8.660;2022-09-09T02:12:25;3.70;;;2.05;;
71003;SDS011;59025;42.050;-8.660;2022-09-09T02:14:56;4.60;;;2.35;;
71003;SDS011;59025;42.050;-8.660;2022-09-09T02:17:30;5.43;;;2.60;;
71003;SDS011;59025;42.050;-8.660;2022-09-09T02:20:03;4.00;;;2.47;;
71003;SDS011;59025;42.050;-8.660;2022-09-09T02:22:34;6.43;;;2.47;;
71003;SDS011;59025;42.050;-8.660;2022-09-09T02:25:05;6.05;;;2.47;;
71003;SDS011;59025;42.050;-8.660;2022-09-09T02:27:37;5.72;;;2.75;;
71003;SDS011;59025;42.050;-8.660;2022-09-09T02:30:06;6.60;;;2.03;;
71003;SDS011;59025;42.050;-8.660;2022-09-09T02:32:35;5.90;;;2.10;;
71003;SDS011;59025;42.050;-8.660;2022-09-09T02:35:05;5.10;;;2.37;;
71003;SDS011;59025;42.050;-8.660;2022-09-09T02:37:36;4.20;;;2.20;;
71003;SDS011;59025;42.050;-8.660;2022-09-09T02:40:06;5.20;;;2.08;;
71003;SDS011;59025;42.050;-8.660;2022-09-09T02:42:39;5.15;;;2.20;;
71003;SDS011;59025;42.050;-8.660;2022-09-09T02:45:09;3.75;;;2.10;;
71003;SDS011;59025;42.050;-8.660;2022-09-09T02:47:38;5.73;;;2.23;;
71003;SDS011;59025;42.050;-8.660;2022-09-09T02:50:13;4.10;;;1.92;;
71003;SDS011;59025;42.050;-8.660;2022-09-09T02:52:47;4.25;;;2.10;;
71003;SDS011;59025;42.050;-8.660;2022-09-09T02:55:33;4.05;;;1.90;;
71003;SDS011;59025;42.050;-8.660;2022-09-09T02:58:07;4.40;;;2.20;;
71003;SDS011;59025;42.050;-8.660;2022-09-09T03:00:38;6.30;;;2.70;;
71003;SDS011;59025;42.050;-8.660;2022-09-09T03:03:07;4.05;;;2.30;;
71003;SDS011;59025;42.050;-8.660;2022-09-09T03:05:35;4.00;;;2.10;;
71003;SDS011;59025;42.050;-8.660;2022-09-09T03:08:03;5.03;;;2.03;;
71003;SDS011;59025;42.050;-8.660;2022-09-09T03:10:32;4.90;;;2.10;;
71003;SDS011;59025;42.050;-8.660;2022-09-09T03:13:00;4.33;;;2.13;;
71003;SDS011;59025;42.050;-8.660;2022-09-09T03:15:29;4.65;;;2.10;;
71003;SDS011;59025;42.050;-8.660;2022-09-09T03:17:56;3.80;;;1.95;;
71003;SDS011;59025;42.050;-8.660;2022-09-09T03:20:24;4.97;;;2.22;;
71003;SDS011;59025;42.050;-8.660;2022-09-09T03:22:53;4.38;;;2.15;;
71003;SDS011;59025;42.050;-8.660;2022-09-09T03:25:21;3.90;;;2.20;;
71003;SDS011;59025;42.050;-8.660;2022-09-09T03:27:49;5.65;;;2.00;;
71003;SDS011;59025;42.050;-8.660;2022-09-09T03:30:19;5.55;;;2.20;;
71003;SDS011;59025;42.050;-8.660;2022-09-09T03:32:49;3.42;;;1.80;;
71003;SDS011;59025;42.050;-8.660;2022-09-09T03:35:16;5.28;;;2.03;;
71003;SDS011;59025;42.050;-8.660;2022-09-09T03:37:44;3.13;;;1.80;;
71003;SDS011;59025;42.050;-8.660;2022-09-09T03:40:12;3.47;;;1.85;;
71003;SDS011;59025;42.050;-8.660;2022-09-09T03:42:40;2.90;;;1.70;;
71003;SDS011;59025;42.050;-8.660;2022-09-09T03:45:08;8.57;;;3.63;;
71003;SDS011;59025;42.050;-8.660;2022-09-09T03:47:37;3.63;;;1.90;;
71003;SDS011;59025;42.050;-8.660;2022-09-09T03:50:06;5.07;;;2.10;;
71003;SDS011;59025;42.050;-8.660;2022-09-09T03:52:36;4.53;;;2.20;;
71003;SDS011;59025;42.050;-8.660;2022-09-09T03:55:05;6.13;;;2.10;;
71003;SDS011;59025;42.050;-8.660;2022-09-09T03:57:33;5.78;;;2.28;;
71003;SDS011;59025;42.050;-8.660;2022-09-09T04:00:02;6.15;;;2.40;;
71003;SDS011;59025;42.050;-8.660;2022-09-09T04:02:30;5.60;;;1.87;;
71003;SDS011;59025;42.050;-8.660;2022-09-09T04:04:58;5.60;;;2.35;;
71003;SDS011;59025;42.050;-8.660;2022-09-09T04:07:27;3.55;;;1.90;;
71003;SDS011;59025;42.050;-8.660;2022-09-09T04:09:55;5.95;;;2.47;;
71003;SDS011;59025;42.050;-8.660;2022-09-09T04:12:22;4.97;;;2.20;;
71003;SDS011;59025;42.050;-8.660;2022-09-09T04:14:50;3.87;;;2.20;;
71003;SDS011;59025;42.050;-8.660;2022-09-09T04:17:17;5.68;;;2.17;;
71003;SDS011;59025;42.050;-8.660;2022-09-09T04:19:44;3.67;;;1.90;;
71003;SDS011;59025;42.050;-8.660;2022-09-09T04:22:12;3.45;;;1.95;;
71003;SDS011;59025;42.050;-8.660;2022-09-09T04:24:41;7.75;;;3.03;;
71003;SDS011;59025;42.050;-8.660;2022-09-09T04:27:08;4.97;;;2.10;;
71003;SDS011;59025;42.050;-8.660;2022-09-09T04:29:35;4.43;;;2.15;;
71003;SDS011;59025;42.050;-8.660;2022-09-09T04:32:03;4.50;;;2.10;;
71003;SDS011;59025;42.050;-8.660;2022-09-09T04:34:31;3.78;;;2.20;;
71003;SDS011;59025;42.050;-8.660;2022-09-09T04:36:58;5.53;;;2.58;;
71003;SDS011;59025;42.050;-8.660;2022-09-09T04:39:26;4.90;;;2.30;;
71003;SDS011;59025;42.050;-8.660;2022-09-09T04:41:55;4.35;;;2.53;;
71003;SDS011;59025;42.050;-8.660;2022-09-09T04:44:23;5.45;;;2.45;;
71003;SDS011;59025;42.050;-8.660;2022-09-09T04:46:50;4.75;;;2.35;;
71003;SDS011;59025;42.050;-8.660;2022-09-09T04:49:17;4.78;;;2.40;;
71003;SDS011;59025;42.050;-8.660;2022-09-09T04:51:45;5.70;;;2.60;;
71003;SDS011;59025;42.050;-8.660;2022-09-09T04:54:12;6.05;;;2.38;;
71003;SDS011;59025;42.050;-8.660;2022-09-09T04:56:40;4.60;;;2.45;;
71003;SDS011;59025;42.050;-8.660;2022-09-09T04:59:10;6.95;;;2.72;;
71003;SDS011;59025;42.050;-8.660;2022-09-09T05:01:37;5.30;;;2.60;;
71003;SDS011;59025;42.050;-8.660;2022-09-09T05:04:05;5.20;;;2.40;;
71003;SDS011;59025;42.050;-8.660;2022-09-09T05:06:33;6.88;;;2.40;;
71003;SDS011;59025;42.050;-8.660;2022-09-09T05:09:01;6.55;;;3.33;;
71003;SDS011;59025;42.050;-8.660;2022-09-09T05:11:29;5.32;;;2.72;;
71003;SDS011;59025;42.050;-8.660;2022-09-09T05:13:59;5.25;;;2.80;;
71003;SDS011;59025;42.050;-8.660;2022-09-09T05:16:28;7.60;;;3.40;;
71003;SDS011;59025;42.050;-8.660;2022-09-09T05:18:56;6.90;;;3.20;;
71003;SDS011;59025;42.050;-8.660;2022-09-09T05:21:24;6.90;;;3.67;;
71003;SDS011;59025;42.050;-8.660;2022-09-09T05:23:53;6.93;;;3.63;;
71003;SDS011;59025;42.050;-8.660;2022-09-09T05:26:21;6.70;;;3.92;;
71003;SDS011;59025;42.050;-8.660;2022-09-09T05:28:49;7.93;;;3.40;;
71003;SDS011;59025;42.050;-8.660;2022-09-09T05:31:17;7.72;;;3.42;;
71003;SDS011;59025;42.050;-8.660;2022-09-09T05:33:46;11.00;;;3.30;;
71003;SDS011;59025;42.050;-8.660;2022-09-09T05:36:15;7.10;;;3.33;;
71003;SDS011;59025;42.050;-8.660;2022-09-09T05:38:44;9.85;;;3.70;;
71003;SDS011;59025;42.050;-8.660;2022-09-09T05:41:12;7.10;;;3.40;;
71003;SDS011;59025;42.050;-8.660;2022-09-09T05:43:41;7.82;;;3.78;;
71003;SDS011;59025;42.050;-8.660;2022-09-09T05:46:10;6.63;;;3.50;;
71003;SDS011;59025;42.050;-8.660;2022-09-09T05:48:39;9.18;;;3.28;;
71003;SDS011;59025;42.050;-8.660;2022-09-09T05:51:09;8.93;;;3.00;;
71003;SDS011;59025;42.050;-8.660;2022-09-09T05:53:38;6.83;;;3.20;;
71003;SDS011;59025;42.050;-8.660;2022-09-09T05:56:07;8.57;;;3.75;;
71003;SDS011;59025;42.050;-8.660;2022-09-09T05:58:36;6.85;;;2.70;;
71003;SDS011;59025;42.050;-8.660;2022-09-09T06:01:05;5.40;;;2.70;;
71003;SDS011;59025;42.050;-8.660;2022-09-09T06:03:34;6.00;;;2.80;;
71003;SDS011;59025;42.050;-8.660;2022-09-09T06:06:02;7.83;;;2.70;;
71003;SDS011;59025;42.050;-8.660;2022-09-09T06:08:33;7.65;;;3.25;;
71003;SDS011;59025;42.050;-8.660;2022-09-09T06:11:02;6.68;;;2.70;;
71003;SDS011;59025;42.050;-8.660;2022-09-09T06:13:30;5.47;;;2.60;;
71003;SDS011;59025;42.050;-8.660;2022-09-09T06:15:58;6.13;;;2.45;;
71003;SDS011;59025;42.050;-8.660;2022-09-09T06:18:26;4.33;;;2.23;;
71003;SDS011;59025;42.050;-8.660;2022-09-09T06:20:55;4.75;;;2.13;;
71003;SDS011;59025;42.050;-8.660;2022-09-09T06:23:23;6.40;;;2.40;;
71003;SDS011;59025;42.050;-8.660;2022-09-09T06:25:59;6.38;;;2.95;;
71003;SDS011;59025;42.050;-8.660;2022-09-09T06:28:29;6.20;;;2.40;;
71003;SDS011;59025;42.050;-8.660;2022-09-09T06:30:59;5.87;;;2.50;;
71003;SDS011;59025;42.050;-8.660;2022-09-09T06:33:26;7.05;;;2.60;;
71003;SDS011;59025;42.050;-8.660;2022-09-09T06:35:57;7.07;;;3.03;;
71003;SDS011;59025;42.050;-8.660;2022-09-09T06:38:24;8.27;;;3.38;;
71003;SDS011;59025;42.050;-8.660;2022-09-09T06:40:53;9.27;;;3.58;;
71003;SDS011;59025;42.050;-8.660;2022-09-09T06:43:23;8.20;;;3.63;;
71003;SDS011;59025;42.050;-8.660;2022-09-09T06:45:54;6.30;;;3.17;;
71003;SDS011;59025;42.050;-8.660;2022-09-09T06:48:23;8.85;;;3.22;;
71003;SDS011;59025;42.050;-8.660;2022-09-09T06:50:52;7.53;;;3.20;;
71003;SDS011;59025;42.050;-8.660;2022-09-09T06:53:27;6.90;;;3.28;;
71003;SDS011;59025;42.050;-8.660;2022-09-09T06:55:56;9.27;;;2.90;;
71003;SDS011;59025;42.050;-8.660;2022-09-09T06:58:24;7.40;;;3.40;;
71003;SDS011;59025;42.050;-8.660;2022-09-09T07:00:51;9.10;;;3.22;;
71003;SDS011;59025;42.050;-8.660;2022-09-09T07:03:19;5.90;;;2.80;;
71003;SDS011;59025;42.050;-8.660;2022-09-09T07:05:53;7.00;;;3.10;;
71003;SDS011;59025;42.050;-8.660;2022-09-09T07:08:21;7.43;;;3.10;;
71003;SDS011;59025;42.050;-8.660;2022-09-09T07:10:50;8.43;;;3.08;;
71003;SDS011;59025;42.050;-8.660;2022-09-09T07:13:23;5.90;;;2.80;;
71003;SDS011;59025;42.050;-8.660;2022-09-09T07:15:50;5.82;;;2.80;;
71003;SDS011;59025;42.050;-8.660;2022-09-09T07:18:18;6.38;;;2.92;;
71003;SDS011;59025;42.050;-8.660;2022-09-09T07:20:52;6.23;;;2.70;;
71003;SDS011;59025;42.050;-8.660;2022-09-09T07:23:21;8.77;;;3.85;;
71003;SDS011;59025;42.050;-8.660;2022-09-09T07:25:48;8.02;;;3.80;;
71003;SDS011;59025;42.050;-8.660;2022-09-09T07:28:18;7.28;;;3.72;;
71003;SDS011;59025;42.050;-8.660;2022-09-09T07:30:52;7.20;;;4.10;;
71003;SDS011;59025;42.050;-8.660;2022-09-09T07:33:20;8.37;;;2.87;;
71003;SDS011;59025;42.050;-8.660;2022-09-09T07:35:48;8.55;;;3.50;;
71003;SDS011;59025;42.050;-8.660;2022-09-09T07:38:15;6.78;;;3.83;;
71003;SDS011;59025;42.050;-8.660;2022-09-09T07:40:43;6.90;;;3.03;;
71003;SDS011;59025;42.050;-8.660;2022-09-09T07:43:11;5.85;;;3.10;;
71003;SDS011;59025;42.050;-8.660;2022-09-09T07:45:39;8.20;;;3.60;;
71003;SDS011;59025;42.050;-8.660;2022-09-09T07:48:08;7.88;;;4.28;;
71003;SDS011;59025;42.050;-8.660;2022-09-09T07:50:36;8.63;;;4.10;;
71003;SDS011;59025;42.050;-8.660;2022-09-09T07:53:04;6.82;;;3.30;;
71003;SDS011;59025;42.050;-8.660;2022-09-09T07:55:32;7.47;;;3.53;;
71003;SDS011;59025;42.050;-8.660;2022-09-09T07:57:59;9.37;;;3.90;;
71003;SDS011;59025;42.050;-8.660;2022-09-09T08:00:27;11.68;;;4.88;;
71003;SDS011;59025;42.050;-8.660;2022-09-09T08:02:55;7.78;;;3.80;;
71003;SDS011;59025;42.050;-8.660;2022-09-09T08:05:23;7.13;;;4.10;;
71003;SDS011;59025;42.050;-8.660;2022-09-09T08:07:50;7.15;;;3.58;;
71003;SDS011;59025;42.050;-8.660;2022-09-09T08:10:17;7.27;;;3.73;;
71003;SDS011;59025;42.050;-8.660;2022-09-09T08:12:45;8.77;;;3.72;;
71003;SDS011;59025;42.050;-8.660;2022-09-09T08:15:14;7.68;;;4.25;;
71003;SDS011;59025;42.050;-8.660;2022-09-09T08:17:41;8.57;;;4.30;;
71003;SDS011;59025;42.050;-8.660;2022-09-09T08:20:10;9.43;;;4.80;;
71003;SDS011;59025;42.050;-8.660;2022-09-09T08:22:38;9.63;;;4.17;;
71003;SDS011;59025;42.050;-8.660;2022-09-09T08:25:05;8.05;;;3.92;;
71003;SDS011;59025;42.050;-8.660;2022-09-09T08:27:35;7.15;;;3.58;;
71003;SDS011;59025;42.050;-8.660;2022-09-09T08:30:03;8.95;;;4.10;;
71003;SDS011;59025;42.050;-8.660;2022-09-09T08:32:31;10.40;;;4.75;;
71003;SDS011;59025;42.050;-8.660;2022-09-09T08:35:00;7.20;;;4.30;;
71003;SDS011;59025;42.050;-8.660;2022-09-09T08:37:29;5.05;;;3.40;;
71003;SDS011;59025;42.050;-8.660;2022-09-09T08:39:57;6.82;;;3.58;;
71003;SDS011;59025;42.050;-8.660;2022-09-09T08:42:28;7.82;;;3.22;;
71003;SDS011;59025;42.050;-8.660;2022-09-09T08:45:14;7.43;;;3.25;;
71003;SDS011;59025;42.050;-8.660;2022-09-09T08:47:54;6.17;;;3.17;;
71003;SDS011;59025;42.050;-8.660;2022-09-09T08:50:35;5.97;;;3.22;;
71003;SDS011;59025;42.050;-8.660;2022-09-09T08:53:09;4.82;;;3.00;;
71003;SDS011;59025;42.050;-8.660;2022-09-09T08:55:42;4.85;;;2.90;;
71003;SDS011;59025;42.050;-8.660;2022-09-09T08:58:13;7.38;;;3.20;;
71003;SDS011;59025;42.050;-8.660;2022-09-09T09:00:46;5.83;;;3.50;;
71003;SDS011;59025;42.050;-8.660;2022-09-09T09:03:27;7.72;;;3.47;;
71003;SDS011;59025;42.050;-8.660;2022-09-09T09:06:02;7.53;;;3.40;;
71003;SDS011;59025;42.050;-8.660;2022-09-09T09:08:38;7.45;;;3.22;;
71003;SDS011;59025;42.050;-8.660;2022-09-09T09:11:10;6.05;;;3.92;;
71003;SDS011;59025;42.050;-8.660;2022-09-09T09:13:39;7.03;;;3.10;;
71003;SDS011;59025;42.050;-8.660;2022-09-09T09:16:14;8.18;;;3.70;;
71003;SDS011;59025;42.050;-8.660;2022-09-09T09:18:48;10.68;;;3.95;;
71003;SDS011;59025;42.050;-8.660;2022-09-09T09:21:17;7.85;;;3.60;;
71003;SDS011;59025;42.050;-8.660;2022-09-09T09:23:51;9.15;;;4.38;;
71003;SDS011;59025;42.050;-8.660;2022-09-09T09:26:23;8.43;;;3.63;;
71003;SDS011;59025;42.050;-8.660;2022-09-09T09:28:55;8.82;;;4.30;;
71003;SDS011;59025;42.050;-8.660;2022-09-09T09:31:25;12.77;;;4.43;;
71003;SDS011;59025;42.050;-8.660;2022-09-09T09:33:53;7.20;;;4.10;;
71003;SDS011;59025;42.050;-8.660;2022-09-09T09:36:24;6.90;;;4.20;;
71003;SDS011;59025;42.050;-8.660;2022-09-09T09:39:01;6.73;;;3.60;;
71003;SDS011;59025;42.050;-8.660;2022-09-09T09:41:31;7.78;;;4.13;;
71003;SDS011;59025;42.050;-8.660;2022-09-09T09:44:01;9.63;;;3.92;;
71003;SDS011;59025;42.050;-8.660;2022-09-09T09:46:29;7.55;;;4.50;;
71003;SDS011;59025;42.050;-8.660;2022-09-09T09:49:00;6.00;;;3.88;;
71003;SDS011;59025;42.050;-8.660;2022-09-09T09:51:31;6.73;;;3.70;;
71003;SDS011;59025;42.050;-8.660;2022-09-09T09:54:08;5.80;;;3.70;;
71003;SDS011;59025;42.050;-8.660;2022-09-09T09:56:42;6.65;;;3.13;;
71003;SDS011;59025;42.050;-8.660;2022-09-09T09:59:19;5.35;;;3.30;;
71003;SDS011;59025;42.050;-8.660;2022-09-09T10:01:48;6.85;;;3.05;;
71003;SDS011;59025;42.050;-8.660;2022-09-09T10:04:16;6.30;;;3.03;;
71003;SDS011;59025;42.050;-8.660;2022-09-09T10:06:46;6.10;;;3.30;;
71003;SDS011;59025;42.050;-8.660;2022-09-09T10:09:25;5.68;;;3.60;;
71003;SDS011;59025;42.050;-8.660;2022-09-09T10:11:59;4.72;;;2.80;;
71003;SDS011;59025;42.050;-8.660;2022-09-09T10:14:33;4.00;;;2.58;;
71003;SDS011;59025;42.050;-8.660;2022-09-09T10:17:13;5.33;;;2.20;;
71003;SDS011;59025;42.050;-8.660;2022-09-09T10:19:51;4.80;;;2.55;;
71003;SDS011;59025;42.050;-8.660;2022-09-09T10:22:27;5.53;;;2.90;;
71003;SDS011;59025;42.050;-8.660;2022-09-09T10:25:08;5.50;;;3.13;;
71003;SDS011;59025;42.050;-8.660;2022-09-09T10:27:47;5.68;;;2.90;;
71003;SDS011;59025;42.050;-8.660;2022-09-09T10:30:33;5.17;;;3.03;;
71003;SDS011;59025;42.050;-8.660;2022-09-09T10:33:16;5.57;;;3.22;;
71003;SDS011;59025;42.050;-8.660;2022-09-09T10:35:52;6.95;;;3.00;;
71003;SDS011;59025;42.050;-8.660;2022-09-09T10:38:36;4.03;;;2.38;;
71003;SDS011;59025;42.050;-8.660;2022-09-09T10:41:15;6.20;;;2.80;;
71003;SDS011;59025;42.050;-8.660;2022-09-09T10:43:56;3.83;;;2.43;;
71003;SDS011;59025;42.050;-8.660;2022-09-09T10:46:44;5.78;;;2.65;;
71003;SDS011;59025;42.050;-8.660;2022-09-09T10:49:25;4.45;;;2.30;;
71003;SDS011;59025;42.050;-8.660;2022-09-09T10:52:07;5.65;;;2.72;;
71003;SDS011;59025;42.050;-8.660;2022-09-09T10:54:45;5.40;;;2.63;;
71003;SDS011;59025;42.050;-8.660;2022-09-09T10:57:25;5.03;;;2.30;;
71003;SDS011;59025;42.050;-8.660;2022-09-09T10:59:58;4.88;;;2.28;;
71003;SDS011;59025;42.050;-8.660;2022-09-09T11:02:31;4.47;;;2.40;;
71003;SDS011;59025;42.050;-8.660;2022-09-09T11:05:00;3.92;;;2.35;;
71003;SDS011;59025;42.050;-8.660;2022-09-09T11:07:33;3.60;;;1.95;;
71003;SDS011;59025;42.050;-8.660;2022-09-09T11:10:04;2.77;;;1.80;;
71003;SDS011;59025;42.050;-8.660;2022-09-09T11:12:44;7.43;;;2.00;;
71003;SDS011;59025;42.050;-8.660;2022-09-09T11:15:17;2.78;;;2.00;;
71003;SDS011;59025;42.050;-8.660;2022-09-09T11:17:49;7.88;;;2.03;;
71003;SDS011;59025;42.050;-8.660;2022-09-09T11:20:22;5.55;;;1.83;;
71003;SDS011;59025;42.050;-8.660;2022-09-09T11:22:51;2.40;;;1.80;;
71003;SDS011;59025;42.050;-8.660;2022-09-09T11:25:26;3.13;;;1.60;;
71003;SDS011;59025;42.050;-8.660;2022-09-09T11:28:05;4.25;;;1.50;;
71003;SDS011;59025;42.050;-8.660;2022-09-09T11:30:50;3.10;;;1.67;;
71003;SDS011;59025;42.050;-8.660;2022-09-09T11:33:31;3.55;;;1.77;;
71003;SDS011;59025;42.050;-8.660;2022-09-09T11:36:16;3.03;;;1.53;;
71003;SDS011;59025;42.050;-8.660;2022-09-09T11:39:00;3.33;;;1.88;;
71003;SDS011;59025;42.050;-8.660;2022-09-09T11:41:36;2.50;;;1.83;;
71003;SDS011;59025;42.050;-8.660;2022-09-09T11:44:11;1.95;;;1.38;;
71003;SDS011;59025;42.050;-8.660;2022-09-09T11:46:43;2.60;;;1.90;;
71003;SDS011;59025;42.050;-8.660;2022-09-09T11:49:25;3.53;;;1.60;;
71003;SDS011;59025;42.050;-8.660;2022-09-09T11:51:55;6.57;;;1.80;;
71003;SDS011;59025;42.050;-8.660;2022-09-09T11:54:28;4.30;;;1.70;;
71003;SDS011;59025;42.050;-8.660;2022-09-09T11:56:57;2.85;;;1.80;;
71003;SDS011;59025;42.050;-8.660;2022-09-09T11:59:27;2.33;;;1.48;;
71003;SDS011;59025;42.050;-8.660;2022-09-09T12:01:57;2.53;;;1.57;;
71003;SDS011;59025;42.050;-8.660;2022-09-09T12:04:30;2.58;;;1.23;;
71003;SDS011;59025;42.050;-8.660;2022-09-09T12:07:03;2.60;;;1.50;;
71003;SDS011;59025;42.050;-8.660;2022-09-09T12:09:43;2.70;;;1.40;;
71003;SDS011;59025;42.050;-8.660;2022-09-09T12:12:21;2.00;;;1.30;;
71003;SDS011;59025;42.050;-8.660;2022-09-09T12:14:56;2.43;;;1.17;;
71003;SDS011;59025;42.050;-8.660;2022-09-09T12:17:27;2.08;;;1.38;;
71003;SDS011;59025;42.050;-8.660;2022-09-09T12:20:00;2.15;;;1.30;;
71003;SDS011;59025;42.050;-8.660;2022-09-09T12:22:35;2.40;;;1.42;;
71003;SDS011;59025;42.050;-8.660;2022-09-09T12:25:14;2.08;;;1.42;;
71003;SDS011;59025;42.050;-8.660;2022-09-09T12:27:50;1.70;;;1.13;;
71003;SDS011;59025;42.050;-8.660;2022-09-09T12:30:32;2.95;;;1.40;;
71003;SDS011;59025;42.050;-8.660;2022-09-09T12:33:08;3.45;;;1.20;;
71003;SDS011;59025;42.050;-8.660;2022-09-09T12:35:40;2.03;;;1.30;;
71003;SDS011;59025;42.050;-8.660;2022-09-09T12:38:11;1.80;;;1.38;;
71003;SDS011;59025;42.050;-8.660;2022-09-09T12:40:53;3.67;;;1.40;;
71003;SDS011;59025;42.050;-8.660;2022-09-09T12:43:21;1.83;;;1.17;;
71003;SDS011;59025;42.050;-8.660;2022-09-09T12:45:52;2.83;;;1.58;;
71003;SDS011;59025;42.050;-8.660;2022-09-09T12:48:26;2.28;;;0.95;;
71003;SDS011;59025;42.050;-8.660;2022-09-09T12:50:58;2.83;;;1.30;;
71003;SDS011;59025;42.050;-8.660;2022-09-09T12:53:28;1.57;;;1.10;;
71003;SDS011;59025;42.050;-8.660;2022-09-09T12:56:00;3.20;;;1.30;;
71003;SDS011;59025;42.050;-8.660;2022-09-09T12:58:30;1.80;;;1.20;;
71003;SDS011;59025;42.050;-8.660;2022-09-09T13:01:02;2.47;;;1.13;;
71003;SDS011;59025;42.050;-8.660;2022-09-09T13:03:31;1.60;;;1.08;;
71003;SDS011;59025;42.050;-8.660;2022-09-09T13:06:11;1.20;;;1.00;;
71003;SDS011;59025;42.050;-8.660;2022-09-09T13:08:40;3.25;;;1.23;;
71003;SDS011;59025;42.050;-8.660;2022-09-09T13:11:09;1.77;;;1.00;;
71003;SDS011;59025;42.050;-8.660;2022-09-09T13:13:41;2.65;;;1.10;;
71003;SDS011;59025;42.050;-8.660;2022-09-09T13:16:20;1.10;;;1.00;;
71003;SDS011;59025;42.050;-8.660;2022-09-09T13:18:49;1.47;;;0.90;;
71003;SDS011;59025;42.050;-8.660;2022-09-09T13:21:17;1.95;;;0.82;;
71003;SDS011;59025;42.050;-8.660;2022-09-09T13:23:48;1.63;;;1.00;;
71003;SDS011;59025;42.050;-8.660;2022-09-09T13:26:21;0.80;;;0.80;;
71003;SDS011;59025;42.050;-8.660;2022-09-09T13:28:50;2.22;;;1.08;;
71003;SDS011;59025;42.050;-8.660;2022-09-09T13:31:23;1.50;;;0.90;;
71003;SDS011;59025;42.050;-8.660;2022-09-09T13:33:56;1.77;;;1.00;;
71003;SDS011;59025;42.050;-8.660;2022-09-09T13:36:27;2.15;;;1.00;;
71003;SDS011;59025;42.050;-8.660;2022-09-09T13:38:58;1.33;;;0.90;;
71003;SDS011;59025;42.050;-8.660;2022-09-09T13:41:28;1.48;;;0.90;;
71003;SDS011;59025;42.050;-8.660;2022-09-09T13:43:58;1.37;;;1.00;;
71003;SDS011;59025;42.050;-8.660;2022-09-09T13:46:30;1.30;;;1.00;;
71003;SDS011;59025;42.050;-8.660;2022-09-09T13:49:00;3.00;;;1.20;;
71003;SDS011;59025;42.050;-8.660;2022-09-09T13:51:32;1.70;;;1.10;;
71003;SDS011;59025;42.050;-8.660;2022-09-09T13:54:03;1.80;;;1.13;;
71003;SDS011;59025;42.050;-8.660;2022-09-09T13:56:32;1.90;;;1.20;;
71003;SDS011;59025;42.050;-8.660;2022-09-09T13:59:00;2.17;;;1.10;;
71003;SDS011;59025;42.050;-8.660;2022-09-09T14:01:28;2.78;;;1.23;;
71003;SDS011;59025;42.050;-8.660;2022-09-09T14:04:00;2.13;;;1.10;;
71003;SDS011;59025;42.050;-8.660;2022-09-09T14:06:27;3.63;;;1.27;;
71003;SDS011;59025;42.050;-8.660;2022-09-09T14:08:57;2.07;;;0.90;;
71003;SDS011;59025;42.050;-8.660;2022-09-09T14:11:25;1.98;;;1.20;;
71003;SDS011;59025;42.050;-8.660;2022-09-09T14:13:52;1.90;;;1.50;;
71003;SDS011;59025;42.050;-8.660;2022-09-09T14:16:19;3.45;;;1.40;;
71003;SDS011;59025;42.050;-8.660;2022-09-09T14:18:48;3.78;;;1.52;;
71003;SDS011;59025;42.050;-8.660;2022-09-09T14:21:16;4.53;;;1.90;;
71003;SDS011;59025;42.050;-8.660;2022-09-09T14:23:43;2.08;;;1.27;;
71003;SDS011;59025;42.050;-8.660;2022-09-09T14:26:11;2.42;;;1.80;;
71003;SDS011;59025;42.050;-8.660;2022-09-09T14:28:38;1.98;;;1.30;;
71003;SDS011;59025;42.050;-8.660;2022-09-09T14:31:06;3.55;;;1.60;;
71003;SDS011;59025;42.050;-8.660;2022-09-09T14:33:33;2.90;;;1.60;;
71003;SDS011;59025;42.050;-8.660;2022-09-09T14:36:03;3.95;;;1.30;;
71003;SDS011;59025;42.050;-8.660;2022-09-09T14:38:32;3.80;;;1.45;;
71003;SDS011;59025;42.050;-8.660;2022-09-09T14:41:04;4.15;;;1.58;;
71003;SDS011;59025;42.050;-8.660;2022-09-09T14:43:32;3.33;;;1.27;;
71003;SDS011;59025;42.050;-8.660;2022-09-09T14:46:04;3.20;;;1.57;;
71003;SDS011;59025;42.050;-8.660;2022-09-09T14:48:32;3.92;;;1.50;;
71003;SDS011;59025;42.050;-8.660;2022-09-09T14:51:06;3.78;;;1.50;;
71003;SDS011;59025;42.050;-8.660;2022-09-09T14:53:34;2.35;;;1.45;;
71003;SDS011;59025;42.050;-8.660;2022-09-09T14:56:05;4.07;;;1.77;;
71003;SDS011;59025;42.050;-8.660;2022-09-09T14:58:33;3.30;;;1.50;;
71003;SDS011;59025;42.050;-8.660;2022-09-09T15:01:02;3.63;;;1.40;;